CDT,Max TemperatureF,Mean TemperatureF,Min TemperatureF,Max Dew PointF,MeanDew PointF,Min DewpointF,Max Humidity, Mean Humidity, Min Humidity, Max Sea Level PressureIn, Mean Sea Level PressureIn, Min Sea Level PressureIn, Max VisibilityMiles, Mean VisibilityMiles, Min VisibilityMiles, Max Wind SpeedMPH, Mean Wind SpeedMPH, Max Gust SpeedMPH,PrecipitationIn, CloudCover, Events, WindDirDegrees
2013-9-1,71,63,55,66,58,52,94,76,60,30.05,29.94,29.82,10,10,10,20,10,26,0.00,4,Rain-Thunderstorm,317
2013-9-2,71,58,46,54,50,45,100,76,41,30.13,30.08,30.04,10,10,10,12,5,17,0.00,0,,340
2013-9-3,80,62,44,63,55,45,100,75,42,30.11,30.07,30.02,10,10,2,10,3,,0.00,0,,183
2013-9-4,89,74,59,68,62,57,94,71,38,30.15,30.10,30.05,10,10,7,9,2,,0.00,0,,235
2013-9-5,87,74,62,66,63,61,100,72,43,30.21,30.16,30.11,10,8,0,14,3,16,0.03,1,Fog-Rain,131
2013-9-6,89,78,66,70,65,61,88,65,43,30.11,30.00,29.90,10,10,10,20,7,26,0.03,2,Rain-Thunderstorm,179
2013-9-7,89,76,64,70,68,63,100,74,52,30.00,29.94,29.90,10,9,0,13,5,17,0.00,0,Fog,15
2013-9-8,75,70,66,68,66,64,94,86,73,30.03,29.96,29.88,10,7,1,14,7,18,0.00,6,,94
2013-9-9,93,81,69,68,66,63,94,69,38,29.88,29.77,29.69,10,8,1,21,9,28,0.00,3,Thunderstorm,181
2013-9-10,78,69,60,66,64,59,100,78,54,30.04,29.96,29.85,10,10,1,8,3,,0.00,2,Rain-Thunderstorm,244
2013-9-11,84,72,60,64,59,48,100,68,33,30.14,30.09,30.04,10,10,5,12,5,16,0.00,1,Rain,278
2013-9-12,75,62,48,52,47,43,93,60,31,30.26,30.22,30.15,10,10,10,20,8,23,0.00,1,,340
2013-9-13,71,56,41,48,43,37,93,63,33,30.28,30.20,30.09,10,10,10,7,2,,0.00,0,,110
2013-9-14,71,60,50,57,49,45,82,66,41,30.09,29.97,29.83,10,10,7,18,9,28,0.03,3,Rain,174
2013-9-15,66,58,51,57,54,48,100,85,64,30.31,30.09,29.82,10,10,7,18,9,24,0.66,7,Rain,11
2013-9-16,68,55,42,52,48,43,100,78,49,30.39,30.31,30.22,10,8,0,12,4,16,0.00,2,Fog,119
2013-9-17,60,56,51,59,53,48,100,89,82,30.23,30.06,29.90,10,7,1,18,11,24,0.00,6,,147
2013-9-18,87,74,60,68,65,59,100,77,49,29.90,29.76,29.68,10,6,1,16,11,23,0.00,5,,162
2013-9-19,73,66,59,66,61,48,94,76,52,29.92,29.77,29.65,10,10,5,21,9,29,0.29,2,Rain-Thunderstorm,268
2013-9-20,60,52,42,52,47,41,94,81,59,30.00,29.95,29.91,10,9,1,18,11,25,0.00,5,Rain,278
2013-9-21,69,52,35,46,42,36,100,70,33,30.02,29.97,29.89,10,10,10,8,2,,0.00,0,,135
2013-9-22,80,64,48,54,49,45,87,61,30,29.91,29.85,29.79,10,10,10,22,10,26,0.00,0,,145
2013-9-23,77,65,53,54,49,45,82,61,32,29.89,29.85,29.80,10,10,10,21,13,30,0.00,0,,143
2013-9-24,69,60,51,55,51,48,94,79,56,29.95,29.92,29.88,10,10,2,8,4,,0.00,1,,94
2013-9-25,75,60,46,54,50,45,100,69,36,29.95,29.90,29.81,10,9,0,16,4,23,0.00,0,Fog,135
2013-9-26,84,70,57,59,56,52,94,63,37,29.86,29.82,29.76,10,9,5,25,15,33,0.00,1,,145
2013-9-27,84,75,66,63,60,54,88,63,37,29.86,29.81,29.76,10,10,7,23,15,33,0.07,2,Rain-Thunderstorm,153
2013-9-28,73,60,48,63,51,39,94,71,42,29.98,29.82,29.66,10,10,2,23,14,30,0.14,4,Rain,223
2013-9-29,78,62,46,45,41,39,82,52,24,29.98,29.89,29.78,10,10,10,17,8,24,0.00,0,,188
2013-9-30,80,68,57,50,46,43,67,46,28,29.78,29.67,29.61,10,10,10,21,15,28,0.00,0,,186